Time;durP1;ratioP1;P1;durP2;ratioP2;P2;SDS_P1;SDS_P2;PMS_P1;PMS_P2;Temp;Humidity;BMP_temperature;BMP_pressure;BME280_temperature;BME280_humidity;BME280_pressure;Samples;Min_cycle;Max_cycle;Signal;HPM_P1;HPM_P2
2023/06/27 00:01:58;;;;;;;6.63;5.93;;;;;;;23.56;47.94;98727.00;5068039;28;20047;-73
2023/06/27 00:04:28;;;;;;;7.28;6.57;;;;;;;23.51;47.47;98729.41;5067792;28;20079;-73
2023/06/27 00:06:55;;;;;;;7.80;6.13;;;;;;;23.60;47.60;98727.47;5085984;28;20200;-73
2023/06/27 00:09:22;;;;;;;8.40;6.38;;;;;;;23.63;47.53;98722.53;5085492;28;20048;-73
2023/06/27 00:11:49;;;;;;;8.27;7.47;;;;;;;23.62;47.61;98736.25;5085944;28;20040;-73
2023/06/27 00:14:19;;;;;;;8.65;7.25;;;;;;;23.49;47.54;98709.81;5085976;28;20055;-73
2023/06/27 00:16:46;;;;;;;8.50;6.38;;;;;;;23.66;47.31;98734.84;5085938;28;20033;-74
2023/06/27 00:19:12;;;;;;;9.38;7.40;;;;;;;23.68;47.64;98738.22;5085935;28;20074;-73
2023/06/27 00:21:39;;;;;;;8.23;7.22;;;;;;;23.67;47.72;98741.94;5067799;28;20045;-74
2023/06/27 00:24:07;;;;;;;8.38;7.53;;;;;;;23.69;47.71;98735.31;5067762;28;20318;-74
2023/06/27 00:26:35;;;;;;;8.82;6.93;;;;;;;23.73;47.75;98729.56;5085486;28;20056;-73
2023/06/27 00:29:02;;;;;;;8.88;7.00;;;;;;;23.72;47.78;98744.09;5085599;28;20098;-73
2023/06/27 00:31:30;;;;;;;7.80;6.97;;;;;;;23.72;48.06;98765.75;5067737;28;20041;-73
2023/06/27 00:33:57;;;;;;;8.23;6.78;;;;;;;23.75;47.94;98759.97;5085351;28;20319;-73
2023/06/27 00:36:24;;;;;;;7.85;7.05;;;;;;;23.76;47.87;98762.50;5067646;28;20119;-74
2023/06/27 00:38:51;;;;;;;8.05;7.25;;;;;;;23.78;48.01;98776.69;5067590;28;20327;-74
2023/06/27 00:41:17;;;;;;;8.60;6.97;;;;;;;23.72;48.06;98788.22;5064069;28;20053;-74
2023/06/27 00:43:44;;;;;;;7.20;6.43;;;;;;;23.74;48.20;98785.34;5065367;28;20053;-74
2023/06/27 00:46:12;;;;;;;8.82;6.80;;;;;;;23.36;48.10;98745.56;5065256;28;20053;-74
2023/06/27 00:48:40;;;;;;;7.55;5.90;;;;;;;23.75;48.04;98795.97;5066379;28;20037;-75
2023/06/27 00:51:10;;;;;;;6.85;6.15;;;;;;;23.67;48.16;98783.34;5069127;28;20111;-74
2023/06/27 00:53:37;;;;;;;7.05;6.35;;;;;;;23.71;48.33;98794.66;5068103;28;20075;-75
2023/06/27 00:56:04;;;;;;;8.05;6.28;;;;;;;23.71;48.19;98800.06;5069440;28;20281;-75
2023/06/27 00:58:32;;;;;;;8.02;7.00;;;;;;;23.69;48.35;98807.53;5068815;28;20114;-75
2023/06/27 01:01:00;;;;;;;7.55;6.30;;;;;;;23.65;48.30;98812.47;5068709;28;20247;-72
2023/06/27 01:03:32;;;;;;;8.13;6.07;;;;;;;23.62;48.33;98804.69;5067847;28;20083;-71
2023/06/27 01:06:06;;;;;;;8.90;6.50;;;;;;;23.58;48.73;98821.47;5068932;28;20044;-71
2023/06/27 01:08:39;;;;;;;;;;;;;;;23.55;48.99;98811.00;5069033;28;20056;-72
2023/06/27 01:11:13;;;;;;;7.93;5.63;;;;;;;23.52;49.11;98814.09;5068881;28;20084;-74
2023/06/27 01:13:42;;;;;;;10.13;6.22;;;;;;;23.61;48.95;98823.81;5069059;28;20090;-73
2023/06/27 01:16:10;;;;;;;6.43;5.57;;;;;;;23.51;48.92;98804.28;5069052;28;20056;-74
2023/06/27 01:18:41;;;;;;;6.47;5.78;;;;;;;23.63;48.69;98827.19;5068447;28;20041;-73
2023/06/27 01:21:09;;;;;;;6.85;6.15;;;;;;;23.51;48.83;98844.84;5068962;28;20041;-74
2023/06/27 01:23:50;;;;;;;7.80;6.88;;;;;;;23.56;48.92;98821.66;5067489;28;20044;-73
2023/06/27 01:26:17;;;;;;;11.52;6.35;;;;;;;23.59;48.88;98833.97;5067404;28;20079;-75
2023/06/27 01:28:44;;;;;;;7.85;7.03;;;;;;;23.57;49.19;98842.28;5067448;28;20049;-74
2023/06/27 01:31:20;;;;;;;16.13;6.97;;;;;;;23.48;49.54;98840.66;5068228;28;20045;-74
2023/06/27 01:33:52;;;;;;;7.07;6.38;;;;;;;23.54;50.54;98839.09;5068072;28;20102;-73
2023/06/27 01:36:23;;;;;;;7.35;6.53;;;;;;;23.46;51.35;98841.84;5068100;28;20044;-73
2023/06/27 01:38:56;;;;;;;7.72;6.90;;;;;;;23.37;51.92;98827.53;5068095;28;20045;-74
2023/06/27 01:41:27;;;;;;;8.40;6.93;;;;;;;23.37;52.04;98830.25;5072213;28;20105;-74
2023/06/27 01:43:55;;;;;;;6.75;6.15;;;;;;;23.12;51.53;98770.03;5088300;28;20052;-77
2023/06/27 01:46:23;;;;;;;7.93;6.47;;;;;;;23.35;51.89;98818.75;5087601;28;20053;-74
2023/06/27 01:48:51;;;;;;;8.05;7.25;;;;;;;23.44;51.44;98828.50;5087951;28;20044;-74
2023/06/27 01:51:18;;;;;;;8.82;6.05;;;;;;;23.40;51.91;98827.19;5087900;28;20048;-74
2023/06/27 01:53:45;;;;;;;6.70;6.10;;;;;;;23.32;51.99;98836.19;5070866;28;20040;-74
2023/06/27 01:56:13;;;;;;;6.63;6.03;;;;;;;22.81;51.88;98766.50;5070258;28;20033;-74
2023/06/27 01:58:40;;;;;;;6.53;5.82;;;;;;;23.28;51.92;98850.22;5088021;28;20049;-74
2023/06/27 02:01:08;;;;;;;6.90;6.20;;;;;;;23.28;52.05;98855.63;5086927;28;20174;-74
2023/06/27 02:03:34;;;;;;;7.97;6.10;;;;;;;22.70;52.23;98778.56;5087694;28;20324;-74
2023/06/27 02:06:01;;;;;;;7.93;5.90;;;;;;;23.14;52.25;98843.69;5087490;28;20049;-74
2023/06/27 02:08:28;;;;;;;6.13;5.53;;;;;;;23.14;52.32;98834.75;5087555;28;20359;-74
2023/06/27 02:10:55;;;;;;;6.30;5.57;;;;;;;23.16;52.00;98838.09;5087577;28;20268;-74
2023/06/27 02:13:23;;;;;;;6.38;5.70;;;;;;;23.17;51.75;98843.34;5087780;28;20219;-74
2023/06/27 02:15:50;;;;;;;6.45;5.63;;;;;;;23.13;51.91;98854.69;5087656;28;20227;-73
2023/06/27 02:18:16;;;;;;;7.82;5.53;;;;;;;23.02;52.25;98861.31;5087960;28;20051;-74
2023/06/27 02:20:43;;;;;;;7.72;6.05;;;;;;;23.03;51.97;98863.00;5087912;28;20052;-74
2023/06/27 02:23:10;;;;;;;6.50;5.65;;;;;;;23.02;52.17;98858.63;5087279;28;20044;-73
2023/06/27 02:25:37;;;;;;;6.35;5.75;;;;;;;23.00;51.95;98853.38;5087228;28;20037;-74
2023/06/27 02:28:05;;;;;;;6.55;5.95;;;;;;;23.07;51.86;98861.63;5087564;28;20041;-74
2023/06/27 02:30:33;;;;;;;8.23;5.55;;;;;;;23.09;51.70;98851.47;5087509;28;20086;-73
2023/06/27 02:33:00;;;;;;;6.70;5.10;;;;;;;23.11;51.83;98851.31;5087065;28;20040;-73
2023/06/27 02:35:27;;;;;;;5.35;4.85;;;;;;;23.15;51.84;98864.28;5087316;28;20052;-73
2023/06/27 02:37:53;;;;;;;8.02;5.30;;;;;;;23.17;51.83;98873.06;5087155;28;20293;-73
2023/06/27 02:40:20;;;;;;;6.75;4.70;;;;;;;23.20;51.79;98869.16;5087475;28;20044;-73
2023/06/27 02:42:47;;;;;;;5.80;5.10;;;;;;;23.19;51.76;98878.31;5086827;28;20056;-73
2023/06/27 02:45:14;;;;;;;5.53;4.60;;;;;;;23.14;51.89;98864.47;5087411;28;20236;-72
2023/06/27 02:47:42;;;;;;;6.22;5.13;;;;;;;23.10;52.20;98869.38;5087242;28;20036;-72
2023/06/27 02:50:10;;;;;;;6.38;5.50;;;;;;;23.00;52.27;98875.00;5087286;28;20188;-73
2023/06/27 02:52:36;;;;;;;6.45;5.03;;;;;;;22.98;52.34;98865.38;5086681;28;20101;-72
2023/06/27 02:55:03;;;;;;;6.80;4.55;;;;;;;23.00;52.58;98864.19;5069931;28;20036;-73
2023/06/27 02:57:30;;;;;;;7.22;5.65;;;;;;;23.03;52.28;98863.84;5087123;28;20037;-73
2023/06/27 02:59:57;;;;;;;7.35;5.90;;;;;;;23.06;51.99;98876.16;5068978;28;20048;-73
2023/06/27 03:02:24;;;;;;;6.72;5.43;;;;;;;22.96;52.04;98879.06;5087044;28;20041;-72
2023/06/27 03:04:52;;;;;;;6.72;6.03;;;;;;;23.12;51.66;98886.28;5069575;28;20289;-72
2023/06/27 03:07:19;;;;;;;6.45;4.97;;;;;;;23.00;51.82;98885.81;5086631;28;20056;-72
2023/06/27 03:09:46;;;;;;;6.18;5.57;;;;;;;22.93;52.22;98895.63;5068854;28;20044;-72
2023/06/27 03:12:13;;;;;;;6.95;5.50;;;;;;;23.10;51.58;98904.53;5086165;28;20113;-73
2023/06/27 03:14:39;;;;;;;10.63;5.80;;;;;;;23.03;51.86;98912.50;5086819;28;20094;-73
2023/06/27 03:17:06;;;;;;;6.90;5.35;;;;;;;23.00;51.97;98912.00;5086529;28;20288;-72
2023/06/27 03:19:33;;;;;;;6.82;5.50;;;;;;;23.00;52.33;98910.13;5086460;28;20078;-72
2023/06/27 03:22:02;;;;;;;6.72;5.43;;;;;;;22.94;53.12;98913.53;5068625;28;20045;-73
2023/06/27 03:24:28;;;;;;;7.07;6.13;;;;;;;22.59;53.13;98835.66;5086373;28;20103;-73
2023/06/27 03:26:55;;;;;;;8.15;5.80;;;;;;;22.90;53.90;98905.94;5086547;28;20052;-73
2023/06/27 03:29:22;;;;;;;7.05;6.40;;;;;;;22.95;54.07;98907.13;5086295;28;20048;-72
2023/06/27 03:31:48;;;;;;;7.63;6.65;;;;;;;22.84;54.21;98907.50;5068476;28;20036;-72
2023/06/27 03:34:15;;;;;;;7.88;6.45;;;;;;;22.86;54.21;98912.72;5068419;28;20044;-72
2023/06/27 03:36:42;;;;;;;8.07;6.30;;;;;;;22.80;54.68;98916.94;5086441;28;20048;-72
2023/06/27 03:39:10;;;;;;;8.00;6.18;;;;;;;22.73;54.88;98915.97;5086100;28;20107;-72
2023/06/27 03:41:37;;;;;;;13.05;7.90;;;;;;;22.83;54.57;98929.28;5085962;28;20056;-72
2023/06/27 03:44:05;;;;;;;7.55;6.43;;;;;;;22.76;55.04;98926.41;5086047;28;20207;-72
2023/06/27 03:46:32;;;;;;;8.80;7.18;;;;;;;22.78;54.90;98923.53;5085680;28;20124;-72
2023/06/27 03:48:58;;;;;;;8.50;6.63;;;;;;;22.80;54.99;98925.06;5086009;28;20285;-72
2023/06/27 03:51:26;;;;;;;7.80;6.50;;;;;;;22.67;55.22;98922.91;5085781;28;20094;-73
2023/06/27 03:53:53;;;;;;;7.70;6.78;;;;;;;22.37;54.90;98873.09;5085947;28;20055;-72
2023/06/27 03:56:21;;;;;;;10.60;7.53;;;;;;;22.70;54.84;98932.50;5086151;28;20041;-72
2023/06/27 03:58:48;;;;;;;8.68;6.63;;;;;;;22.70;54.84;98919.84;5085638;28;20048;-73
2023/06/27 04:01:14;;;;;;;6.90;5.72;;;;;;;22.58;55.03;98915.81;5085546;28;20041;-72
2023/06/27 04:03:41;;;;;;;8.45;6.25;;;;;;;22.62;54.66;98922.56;5085787;28;20093;-72
2023/06/27 04:06:08;;;;;;;6.05;5.45;;;;;;;22.61;54.59;98925.44;5085511;28;20111;-72
2023/06/27 04:08:35;;;;;;;7.18;6.18;;;;;;;22.41;54.85;98928.47;5067808;28;20200;-71
2023/06/27 04:11:01;;;;;;;7.40;6.25;;;;;;;22.44;54.75;98924.59;5067882;28;20088;-73
2023/06/27 04:13:30;;;;;;;6.55;5.72;;;;;;;22.53;54.23;98926.25;5067841;28;20036;-73
2023/06/27 04:15:56;;;;;;;7.53;6.72;;;;;;;22.19;54.39;98912.94;5085713;28;20064;-73
2023/06/27 04:18:23;;;;;;;8.02;5.88;;;;;;;22.34;54.37;98932.00;5085668;28;20047;-72
2023/06/27 04:20:50;;;;;;;7.10;6.40;;;;;;;22.42;54.14;98929.31;5085603;28;20362;-71
2023/06/27 04:23:17;;;;;;;6.75;5.97;;;;;;;22.42;54.17;98938.25;5085505;28;20044;-72
2023/06/27 04:25:45;;;;;;;6.72;6.03;;;;;;;22.45;54.56;98939.78;5090027;28;20044;-72
2023/06/27 04:28:12;;;;;;;7.35;6.00;;;;;;;22.56;55.81;98954.81;5089332;28;20040;-72
2023/06/27 04:30:40;;;;;;;8.30;6.32;;;;;;;22.46;56.60;98959.50;5071858;28;20296;-72
2023/06/27 04:33:07;;;;;;;8.82;6.38;;;;;;;22.39;57.12;98965.56;5089915;28;20040;-72
2023/06/27 04:35:33;;;;;;;7.38;6.13;;;;;;;22.40;57.66;98964.59;5089592;28;20056;-73
2023/06/27 04:38:00;;;;;;;7.40;6.55;;;;;;;22.24;58.11;98969.94;5089532;28;20288;-72
2023/06/27 04:40:27;;;;;;;8.52;6.65;;;;;;;22.15;58.89;98959.31;5089448;28;20066;-73
2023/06/27 04:42:53;;;;;;;8.73;7.13;;;;;;;22.31;58.35;98968.25;5089018;28;20071;-72
2023/06/27 04:45:20;;;;;;;8.98;6.82;;;;;;;22.36;57.93;98967.75;5089106;28;20103;-72
2023/06/27 04:47:48;;;;;;;7.10;6.32;;;;;;;22.31;58.64;98975.50;5089003;28;20044;-72
2023/06/27 04:50:18;;;;;;;8.02;7.22;;;;;;;22.33;58.74;98978.88;5071505;28;20048;-72
2023/06/27 04:52:45;;;;;;;9.52;6.90;;;;;;;21.86;59.20;98930.13;5089198;28;20041;-72
2023/06/27 04:55:12;;;;;;;7.57;6.72;;;;;;;22.17;59.56;98990.53;5089237;28;20162;-72
2023/06/27 04:57:39;;;;;;;10.30;7.15;;;;;;;22.21;59.14;98986.47;5089444;28;20289;-72
2023/06/27 05:00:09;;;;;;;9.75;7.32;;;;;;;22.23;59.70;98994.41;5071218;28;20037;-71
2023/06/27 05:02:36;;;;;;;8.77;7.30;;;;;;;22.29;59.43;98994.59;5071298;28;20040;-72
2023/06/27 05:05:07;;;;;;;10.02;7.43;;;;;;;22.18;60.43;99003.00;5089052;28;20052;-72
2023/06/27 05:07:34;;;;;;;8.38;7.57;;;;;;;22.18;60.26;99005.72;5089056;28;20036;-72
2023/06/27 05:10:01;;;;;;;12.98;7.72;;;;;;;22.20;60.08;99000.13;5088680;28;20036;-72
2023/06/27 05:12:28;;;;;;;8.27;6.95;;;;;;;22.13;60.50;98996.41;5088692;28;20048;-71
2023/06/27 05:14:54;;;;;;;7.75;6.65;;;;;;;22.06;60.73;99005.19;5089087;28;20036;-73
2023/06/27 05:17:21;;;;;;;9.68;7.47;;;;;;;21.86;60.74;98992.16;5088721;28;20130;-72
2023/06/27 05:19:48;;;;;;;9.80;7.22;;;;;;;21.49;60.98;98946.69;5088778;28;20307;-72
2023/06/27 05:22:16;;;;;;;7.55;6.75;;;;;;;21.87;61.22;99018.13;5088757;28;20037;-72
2023/06/27 05:24:43;;;;;;;8.57;6.97;;;;;;;21.97;60.59;99016.97;5071429;28;20145;-72
2023/06/27 05:27:09;;;;;;;8.30;6.70;;;;;;;21.72;60.17;98990.91;5070760;28;20245;-72
2023/06/27 05:29:36;;;;;;;8.45;6.82;;;;;;;21.70;60.38;99020.75;5071485;28;20043;-72
2023/06/27 05:32:03;;;;;;;7.60;6.20;;;;;;;21.72;59.97;99023.28;5070567;28;20055;-72
2023/06/27 05:34:30;;;;;;;8.80;6.18;;;;;;;21.74;59.36;99029.34;5088654;28;20058;-72
2023/06/27 05:36:57;;;;;;;8.63;6.53;;;;;;;21.63;59.65;99029.66;5088625;28;20041;-72
2023/06/27 05:39:25;;;;;;;8.10;6.40;;;;;;;21.64;58.97;99029.47;5088328;28;20280;-72
2023/06/27 05:41:51;;;;;;;7.88;5.95;;;;;;;21.62;59.00;99038.75;5087998;28;20048;-73
2023/06/27 05:44:18;;;;;;;7.25;6.35;;;;;;;21.51;58.82;99045.28;5070293;28;20086;-72
2023/06/27 05:46:48;;;;;;;9.52;6.00;;;;;;;21.53;58.34;99039.72;5088187;28;20044;-72
2023/06/27 05:49:16;;;;;;;8.88;6.03;;;;;;;21.49;58.47;99052.69;5070235;28;20041;-72
2023/06/27 05:51:42;;;;;;;7.53;5.20;;;;;;;21.46;57.87;99037.66;5088324;28;20069;-72
2023/06/27 05:54:09;;;;;;;8.05;5.88;;;;;;;21.37;57.77;99044.03;5087953;28;20361;-72
2023/06/27 05:56:39;;;;;;;8.88;6.43;;;;;;;21.19;58.18;99054.03;5088080;28;20041;-72
2023/06/27 05:59:05;;;;;;;6.95;5.55;;;;;;;;;;5087716;28;20043;-71
2023/06/27 06:01:32;;;;;;;9.13;5.45;;;;;;;21.31;57.41;99035.75;5087677;28;20244;-72
2023/06/27 06:03:59;;;;;;;6.38;5.68;;;;;;;21.44;56.97;99042.38;5087317;28;20082;-72
2023/06/27 06:06:25;;;;;;;6.55;5.15;;;;;;;21.52;57.02;99044.25;5087607;28;20044;-73
2023/06/27 06:08:52;;;;;;;7.63;6.25;;;;;;;21.43;56.95;99047.94;5069932;28;20033;-72
2023/06/27 06:11:19;;;;;;;7.07;5.45;;;;;;;21.38;56.79;99042.19;5087533;28;20055;-72
2023/06/27 06:13:47;;;;;;;6.88;5.20;;;;;;;21.40;56.70;99042.84;5087607;28;20040;-73
2023/06/27 06:16:14;;;;;;;5.60;5.00;;;;;;;21.34;56.87;99047.03;5087777;28;20041;-73
2023/06/27 06:18:40;;;;;;;8.70;5.57;;;;;;;21.45;56.65;99041.38;5087347;28;20049;-72
2023/06/27 06:21:07;;;;;;;9.00;5.05;;;;;;;21.30;56.41;99056.44;5087857;28;20051;-72
2023/06/27 06:23:34;;;;;;;8.07;5.70;;;;;;;21.39;56.17;99054.66;5087143;28;20178;-70
2023/06/27 06:26:01;;;;;;;6.00;5.05;;;;;;;21.38;55.88;99036.78;5069663;28;20044;-72
2023/06/27 06:28:27;;;;;;;6.53;5.18;;;;;;;21.43;56.14;99064.94;5087114;28;20032;-71
2023/06/27 06:30:56;;;;;;;5.82;4.70;;;;;;;21.38;55.71;99071.81;5087480;28;20115;-71
2023/06/27 06:33:23;;;;;;;8.40;5.10;;;;;;;21.38;55.43;99077.22;5087145;28;20056;-71
2023/06/27 06:35:49;;;;;;;6.50;5.38;;;;;;;21.30;55.67;99071.78;5087323;28;20036;-71
2023/06/27 06:38:16;;;;;;;7.28;5.32;;;;;;;21.25;55.48;99061.47;5087166;28;20181;-71
2023/06/27 06:40:44;;;;;;;5.93;4.68;;;;;;;21.40;55.36;99073.34;5087447;28;20059;-70
2023/06/27 06:43:10;;;;;;;9.93;5.50;;;;;;;21.52;54.90;99065.00;5065637;28;20083;-71
2023/06/27 06:45:37;;;;;;;8.25;4.40;;;;;;;21.39;55.00;99073.50;5067063;28;20045;-70
2023/06/27 06:48:06;;;;;;;5.63;4.63;;;;;;;21.41;54.95;99063.41;5065965;28;20091;-71
2023/06/27 06:50:33;;;;;;;7.20;5.35;;;;;;;21.41;55.03;99076.91;5067064;28;20197;-72
2023/06/27 06:53:00;;;;;;;6.95;5.40;;;;;;;21.16;55.34;99046.25;5065809;28;20041;-71
2023/06/27 06:55:27;;;;;;;6.28;5.07;;;;;;;21.42;55.04;99074.03;5065644;28;20343;-71
2023/06/27 06:57:53;;;;;;;9.05;5.28;;;;;;;21.32;55.43;99072.47;5067013;28;20309;-70
2023/06/27 07:00:21;;;;;;;9.10;4.85;;;;;;;21.32;55.44;99070.63;5066719;28;20208;-71
2023/06/27 07:02:48;;;;;;;9.05;4.82;;;;;;;21.39;55.40;99063.56;5066978;28;20048;-71
2023/06/27 07:05:16;;;;;;;7.25;4.60;;;;;;;21.50;55.43;99062.44;5065553;28;20041;-72
2023/06/27 07:07:43;;;;;;;5.93;4.60;;;;;;;21.46;54.87;99063.78;5066845;28;20043;-70
2023/06/27 07:10:10;;;;;;;5.85;4.75;;;;;;;21.30;54.99;99045.66;5066642;28;20049;-71
2023/06/27 07:12:37;;;;;;;5.10;4.40;;;;;;;21.41;55.28;99061.56;5066164;28;20037;-71
2023/06/27 07:15:05;;;;;;;8.35;5.45;;;;;;;21.48;55.41;99052.84;5066745;28;20041;-72
2023/06/27 07:17:32;;;;;;;7.00;4.88;;;;;;;21.58;55.54;99034.69;5065390;28;20103;-71
2023/06/27 07:19:59;;;;;;;9.40;5.32;;;;;;;21.64;54.86;99026.78;5065190;28;20041;-71
2023/06/27 07:22:27;;;;;;;7.40;4.75;;;;;;;21.66;54.55;99023.94;5066579;28;20239;-71
2023/06/27 07:24:54;;;;;;;6.82;4.28;;;;;;;21.74;54.71;99035.59;5066033;28;20049;-71
2023/06/27 07:27:21;;;;;;;7.70;5.70;;;;;;;21.89;54.08;99029.59;5065940;28;20178;-71
2023/06/27 07:29:47;;;;;;;7.07;4.47;;;;;;;21.80;54.11;99046.75;5066538;28;20040;-71
2023/06/27 07:32:14;;;;;;;7.00;4.55;;;;;;;21.58;54.67;99035.53;5065927;28;20194;-70
2023/06/27 07:34:41;;;;;;;12.80;5.80;;;;;;;21.75;58.67;99061.56;5065852;28;20051;-71
2023/06/27 07:37:08;;;;;;;15.15;6.40;;;;;;;21.06;60.53;98987.09;5066355;28;20045;-71
2023/06/27 07:39:36;;;;;;;6.93;5.00;;;;;;;21.50;62.08;99085.88;5065900;28;20053;-71
2023/06/27 07:42:03;;;;;;;8.18;5.55;;;;;;;21.25;62.15;99057.94;5075194;28;20204;-71
2023/06/27 07:44:30;;;;;;;12.50;5.28;;;;;;;21.63;62.62;99107.84;5068255;28;20116;-71
2023/06/27 07:46:57;;;;;;;13.25;7.60;;;;;;;21.46;64.17;99096.97;5085646;28;20059;-71
2023/06/27 07:49:24;;;;;;;10.40;5.10;;;;;;;21.36;65.31;99108.88;5086071;28;20146;-71
2023/06/27 07:51:51;;;;;;;11.13;6.28;;;;;;;21.28;66.96;99109.66;5085937;28;20192;-70
2023/06/27 07:54:19;;;;;;;9.15;6.22;;;;;;;21.34;66.52;99114.44;5086209;28;20068;-70
2023/06/27 07:56:48;;;;;;;7.50;4.45;;;;;;;21.38;65.10;99105.03;5085781;28;20040;-71
2023/06/27 07:59:14;;;;;;;6.07;4.85;;;;;;;21.34;64.32;99095.56;5085305;28;20040;-71
2023/06/27 08:01:41;;;;;;;8.23;4.38;;;;;;;21.22;64.29;99101.38;5086147;28;20086;-71
2023/06/27 08:04:08;;;;;;;6.47;4.90;;;;;;;21.12;64.62;99107.72;5085663;28;20101;-71
2023/06/27 08:06:35;;;;;;;6.68;4.28;;;;;;;21.10;65.46;99112.41;5086034;28;20091;-71
2023/06/27 08:09:01;;;;;;;5.40;4.15;;;;;;;20.94;65.44;99114.09;5085909;28;20302;-71
2023/06/27 08:11:28;;;;;;;5.78;4.10;;;;;;;20.91;67.17;99100.94;5085418;28;20040;-71
2023/06/27 08:13:56;;;;;;;6.75;4.15;;;;;;;20.97;67.13;99086.84;5085493;28;20064;-71
2023/06/27 08:16:23;;;;;;;5.97;4.72;;;;;;;21.04;66.77;99094.19;5067865;28;20090;-71
2023/06/27 08:18:50;;;;;;;6.43;4.80;;;;;;;21.05;66.65;99097.72;5085704;28;20192;-71
2023/06/27 08:21:17;;;;;;;6.13;4.97;;;;;;;20.91;66.51;99111.72;5068245;28;20043;-72
2023/06/27 08:23:44;;;;;;;6.43;5.07;;;;;;;20.99;65.30;99117.19;5067584;28;20315;-71
2023/06/27 08:26:14;;;;;;;7.10;4.70;;;;;;;20.80;66.18;99119.03;5085681;28;20275;-71
2023/06/27 08:28:41;;;;;;;7.82;4.95;;;;;;;20.98;65.14;99097.47;5085632;28;20284;-71
2023/06/27 08:31:11;;;;;;;7.72;5.90;;;;;;;21.11;65.64;99111.41;5085419;28;20055;-71
2023/06/27 08:33:38;;;;;;;7.32;4.68;;;;;;;20.83;65.60;99110.66;5085534;28;20041;-71
2023/06/27 08:36:05;;;;;;;8.95;5.20;;;;;;;21.04;65.15;99106.81;5067701;28;20046;-71
2023/06/27 08:38:31;;;;;;;6.40;4.95;;;;;;;20.96;64.99;99104.03;5085159;28;20247;-71
2023/06/27 08:40:58;;;;;;;6.18;5.03;;;;;;;21.02;64.95;99106.97;5084959;28;20090;-71
2023/06/27 08:43:25;;;;;;;7.07;5.18;;;;;;;20.83;64.91;99102.56;5067559;28;20033;-70
2023/06/27 08:45:54;;;;;;;7.28;5.47;;;;;;;20.94;64.89;99097.94;5085240;28;20261;-70
2023/06/27 08:48:22;;;;;;;6.65;4.95;;;;;;;21.03;64.16;99097.03;5085038;28;20048;-70
2023/06/27 08:50:53;;;;;;;6.57;4.97;;;;;;;21.08;63.90;99108.19;5085367;28;20178;-69
2023/06/27 08:53:23;;;;;;;6.63;5.75;;;;;;;20.94;64.73;99098.78;5085290;28;20312;-71
2023/06/27 08:55:54;;;;;;;5.68;4.68;;;;;;;20.89;65.14;99106.50;5085039;28;20044;-70
2023/06/27 08:58:25;;;;;;;8.27;5.38;;;;;;;20.97;64.95;99103.88;5085538;28;20319;-72
2023/06/27 09:00:54;;;;;;;5.68;4.97;;;;;;;20.65;65.32;99064.06;5085008;28;20037;-71
2023/06/27 09:03:23;;;;;;;5.60;4.85;;;;;;;20.80;65.41;99094.81;5085135;28;20066;-71
2023/06/27 09:05:50;;;;;;;6.85;5.22;;;;;;;20.48;67.02;99094.53;5067436;28;20040;-71
2023/06/27 09:08:19;;;;;;;7.15;5.45;;;;;;;20.40;66.77;99092.59;5085068;28;20090;-71
2023/06/27 09:10:46;;;;;;;6.07;4.60;;;;;;;19.99;65.28;99002.53;5069794;28;20041;-72
2023/06/27 09:13:13;;;;;;;7.50;5.65;;;;;;;20.23;65.48;99047.69;5071272;28;20041;-71
2023/06/27 09:15:40;;;;;;;7.75;5.75;;;;;;;20.68;65.17;99132.91;5088849;28;20040;-71
2023/06/27 09:18:07;;;;;;;9.25;5.57;;;;;;;20.39;65.92;99117.81;5089101;28;20058;-71
2023/06/27 09:20:35;;;;;;;6.70;5.20;;;;;;;20.50;65.98;99144.50;5088992;28;20040;-71
2023/06/27 09:23:05;;;;;;;6.07;5.22;;;;;;;20.05;66.02;99098.75;5088373;28;20086;-70
2023/06/27 09:25:32;;;;;;;7.28;5.13;;;;;;;20.51;66.03;99164.19;5088842;28;20184;-71
2023/06/27 09:28:14;;;;;;;7.85;5.35;;;;;;;20.38;67.47;99175.34;5088782;28;20040;-71
2023/06/27 09:30:40;;;;;;;8.43;6.18;;;;;;;20.39;68.05;99162.72;5088700;28;20052;-71
2023/06/27 09:33:07;;;;;;;9.05;5.90;;;;;;;20.44;68.04;99158.59;5088357;28;20044;-71
2023/06/27 09:35:45;;;;;;;7.13;5.10;;;;;;;20.08;68.04;99128.03;5088015;28;20037;-71
2023/06/27 09:38:12;;;;;;;6.95;5.00;;;;;;;20.41;68.08;99172.34;5071012;28;20068;-72
2023/06/27 09:40:39;;;;;;;6.95;4.75;;;;;;;20.41;66.95;99175.03;5088208;28;20044;-71
2023/06/27 09:43:09;;;;;;;8.32;4.93;;;;;;;20.35;66.68;99169.41;5087914;28;20060;-71
2023/06/27 09:45:36;;;;;;;6.13;3.95;;;;;;;20.38;65.46;99166.41;5088025;28;20037;-71
2023/06/27 09:48:03;;;;;;;6.53;4.07;;;;;;;20.36;66.37;99157.66;5070329;28;20252;-71
2023/06/27 09:50:31;;;;;;;7.45;4.65;;;;;;;20.36;65.71;99154.94;5088087;28;20235;-71
2023/06/27 09:53:01;;;;;;;5.60;3.97;;;;;;;20.27;65.38;99156.72;5088417;28;20111;-72
2023/06/27 09:55:28;;;;;;;5.75;3.95;;;;;;;20.25;63.71;99163.25;5087824;28;20364;-71
2023/06/27 09:57:57;;;;;;;4.90;3.78;;;;;;;20.32;63.33;99162.47;5087795;28;20040;-71
2023/06/27 10:00:26;;;;;;;6.93;4.07;;;;;;;20.29;64.01;99168.16;5087954;28;20063;-71
2023/06/27 10:02:53;;;;;;;6.57;4.00;;;;;;;20.19;65.08;99170.88;5070017;28;20227;-71
2023/06/27 10:05:22;;;;;;;5.10;4.15;;;;;;;20.28;64.79;99165.63;5087451;28;20073;-71
2023/06/27 10:07:51;;;;;;;5.25;3.97;;;;;;;20.22;64.55;99168.88;5088026;28;20044;-71
2023/06/27 10:10:21;;;;;;;5.43;4.22;;;;;;;20.25;64.85;99158.69;5087667;28;20100;-71
2023/06/27 10:12:48;;;;;;;6.25;4.68;;;;;;;20.40;64.19;99161.72;5088047;28;20033;-71
2023/06/27 10:15:15;;;;;;;5.65;5.07;;;;;;;20.41;64.96;99168.81;5087764;28;20110;-71
2023/06/27 10:17:42;;;;;;;6.18;4.68;;;;;;;20.41;65.19;99172.34;5087177;28;20044;-70
2023/06/27 10:20:11;;;;;;;8.18;4.72;;;;;;;20.18;65.47;99176.41;5087788;28;20032;-71
2023/06/27 10:22:42;;;;;;;6.18;4.78;;;;;;;20.24;66.04;99180.38;5086042;28;20059;-71
2023/06/27 10:25:10;;;;;;;6.10;4.95;;;;;;;20.24;65.56;99185.75;5087231;28;20036;-71
2023/06/27 10:27:40;;;;;;;5.25;4.70;;;;;;;20.17;65.18;99182.78;5070712;28;20048;-71
2023/06/27 10:30:14;;;;;;;5.75;4.30;;;;;;;20.14;65.12;99180.41;5087437;28;20181;-71
2023/06/27 10:32:44;;;;;;;6.75;4.57;;;;;;;20.14;64.47;99170.47;5087480;28;20044;-71
2023/06/27 10:35:12;;;;;;;10.00;4.60;;;;;;;20.21;64.94;99169.88;5087520;28;20101;-71
2023/06/27 10:37:42;;;;;;;6.63;4.40;;;;;;;20.07;65.17;99139.81;5087301;28;20040;-70
2023/06/27 10:40:10;;;;;;;5.25;4.05;;;;;;;20.16;64.37;99156.88;5087117;28;20047;-70
2023/06/27 10:42:42;;;;;;;7.32;4.45;;;;;;;20.26;63.85;99173.84;5086921;28;20053;-71
2023/06/27 10:45:10;;;;;;;7.00;4.85;;;;;;;20.11;64.23;99153.78;5087463;28;20090;-71
2023/06/27 10:47:39;;;;;;;6.10;4.18;;;;;;;20.06;64.49;99167.69;5068921;28;20096;-71
2023/06/27 10:50:09;;;;;;;6.30;5.00;;;;;;;19.89;64.63;99157.72;5087176;28;20068;-71
2023/06/27 10:52:36;;;;;;;6.10;4.68;;;;;;;19.93;64.97;99163.66;5086566;28;20044;-71
2023/06/27 10:55:20;;;;;;;6.05;4.22;;;;;;;19.98;65.38;99146.06;5069800;28;20040;-71
2023/06/27 10:57:50;;;;;;;11.35;4.72;;;;;;;19.97;65.09;99157.84;5086545;28;20079;-71
2023/06/27 11:00:24;;;;;;;9.32;4.78;;;;;;;19.92;64.97;99154.75;5086789;28;20040;-71
2023/06/27 11:02:53;;;;;;;5.22;4.40;;;;;;;19.89;65.66;99141.59;5087030;28;20059;-71
2023/06/27 11:05:37;;;;;;;6.60;4.45;;;;;;;19.83;66.39;99143.03;5068905;28;20318;-72
2023/06/27 11:08:04;;;;;;;7.22;4.95;;;;;;;19.61;65.52;99105.75;5086259;28;20052;-71
2023/06/27 11:10:31;;;;;;;9.38;5.05;;;;;;;20.01;64.98;99136.84;5086162;28;20036;-71
2023/06/27 11:13:16;;;;;;;6.63;3.95;;;;;;;19.96;64.16;99131.94;5086418;28;20062;-70
2023/06/27 11:15:44;;;;;;;7.20;4.28;;;;;;;19.87;64.69;99135.50;5086536;28;20048;-71
2023/06/27 11:18:13;;;;;;;5.25;4.10;;;;;;;19.93;65.32;99124.16;5085798;28;20044;-71
2023/06/27 11:20:40;;;;;;;5.50;3.90;;;;;;;20.11;64.12;99103.53;5086188;28;20040;-71
2023/06/27 11:23:07;;;;;;;5.55;4.30;;;;;;;20.13;63.70;99098.84;5086383;28;20301;-71
2023/06/27 11:25:38;;;;;;;8.90;4.70;;;;;;;20.16;63.12;99101.22;5068565;28;20032;-71
2023/06/27 11:28:05;;;;;;;5.18;4.45;;;;;;;20.13;63.42;99114.13;5086067;28;20086;-71
2023/06/27 11:30:33;;;;;;;7.97;4.22;;;;;;;20.15;63.26;99113.00;5085546;28;20322;-71
2023/06/27 11:33:01;;;;;;;5.93;4.45;;;;;;;20.14;63.30;99115.84;5085803;28;20285;-71
2023/06/27 11:35:28;;;;;;;4.90;4.40;;;;;;;20.17;63.42;99108.31;5085722;28;20327;-71
2023/06/27 11:37:56;;;;;;;8.02;4.45;;;;;;;20.12;63.81;99113.28;5085765;28;20052;-71